Portland, Oregon
Traffic Map
Current Weather Conditions
Portland, Oregon
Overcast
Overcast
55°
Feels Like: 55°
Wind Chill: 55° Ceiling: 3100
Heat Index: 55° Visibility: 10mi
Dew Point: 51° Wind: 5mph
Humidity: 86% Direction: 200° (SSW)
Pressure: 30.18in Gusts: 0mph
Raw Report DataKPDX 231612Z 20004KT 10SM FEW024 OVC031 13/11 A3018 RMK AO2 T01280106
Traffic Incident Summary
Active as of:
Severity:
Category:
InformationThere was an issue retrieving the traffic information for this location. Please try a different location or try again shortly.
Advertisements
Track Severe Weather on mobile